createdAt,value
2019-05-02T00:00:29.653Z,16.37
2019-05-02T00:01:40.557Z,16.25
2019-05-02T00:02:45.407Z,16.80
2019-05-02T00:03:49.739Z,17.52
2019-05-02T00:04:55.891Z,15.53
2019-05-02T00:06:03.015Z,18.70
2019-05-02T00:07:14.489Z,17.65
2019-05-02T00:08:16.845Z,17.15
2019-05-02T00:09:22.072Z,17.07
2019-05-02T00:10:26.901Z,20.55
2019-05-02T00:11:31.404Z,16.25
2019-05-02T00:12:35.582Z,17.92
2019-05-02T00:13:39.865Z,20.52
2019-05-02T00:14:44.686Z,16.62
2019-05-02T00:15:51.784Z,19.15
2019-05-02T00:16:56.065Z,17.50
2019-05-02T00:18:01.390Z,17.57
2019-05-02T00:19:09.102Z,17.23
2019-05-02T00:20:12.609Z,21.07
2019-05-02T00:21:18.499Z,16.52
2019-05-02T00:22:23.175Z,20.95
2019-05-02T00:23:28.095Z,15.70
2019-05-02T00:24:33.980Z,17.15
2019-05-02T00:25:39.395Z,18.70
2019-05-02T00:26:43.637Z,16.15
2019-05-02T00:27:48.237Z,16.45
2019-05-02T00:28:52.772Z,17.87
2019-05-02T00:29:58.821Z,17.12
2019-05-02T00:31:07.521Z,16.95
2019-05-02T00:32:09.075Z,17.70
2019-05-02T00:33:13.321Z,16.17
2019-05-02T00:34:17.605Z,17.85
2019-05-02T00:35:21.730Z,15.65
2019-05-02T00:36:26.003Z,18.40
2019-05-02T00:37:30.304Z,17.80
2019-05-02T00:38:38.442Z,16.37
2019-05-02T00:39:40.590Z,16.42
2019-05-02T00:40:46.520Z,17.67
2019-05-02T00:41:50.882Z,16.65
2019-05-02T00:42:58.267Z,20.70
2019-05-02T00:44:01.173Z,17.62
2019-05-02T00:45:06.240Z,16.35
2019-05-02T00:46:10.428Z,15.80
2019-05-02T00:47:36.733Z,17.90
2019-05-02T00:48:45.785Z,17.70
2019-05-02T00:49:50.029Z,18.27
2019-05-02T00:50:54.218Z,15.55
2019-05-02T00:52:01.400Z,18.32
2019-05-02T00:53:07.091Z,16.42
2019-05-02T00:54:10.890Z,16.75
2019-05-02T00:55:15.025Z,17.95
2019-05-02T00:56:19.684Z,18.52
2019-05-02T00:57:23.942Z,18.37
2019-05-02T00:58:31.871Z,18.65
2019-05-02T00:59:37.749Z,15.93
2019-05-02T01:00:56.883Z,19.60
2019-05-02T01:02:09.930Z,18.02
2019-05-02T01:03:16.165Z,19.15
2019-05-02T01:04:27.627Z,19.92
2019-05-02T01:05:33.832Z,18.30
2019-05-02T01:06:35.848Z,17.02
2019-05-02T01:07:40.062Z,16.85
2019-05-02T01:08:44.276Z,16.62
2019-05-02T01:09:48.427Z,17.10
2019-05-02T01:10:56.835Z,15.72
2019-05-02T01:12:03.280Z,16.15
2019-05-02T01:13:05.010Z,18.20
2019-05-02T01:14:09.308Z,17.77
2019-05-02T01:15:14.301Z,19.62
2019-05-02T01:16:19.165Z,17.10
2019-05-02T01:17:26.139Z,18.17
2019-05-02T01:18:30.635Z,15.40
2019-05-02T01:19:34.899Z,15.60
2019-05-02T01:20:39.263Z,15.85
2019-05-02T01:21:43.505Z,17.23
2019-05-02T01:22:52.303Z,16.80
2019-05-02T01:23:53.817Z,18.92
2019-05-02T01:24:58.083Z,14.93
2019-05-02T01:26:02.379Z,16.97
2019-05-02T01:27:25.695Z,18.32
2019-05-02T01:28:54.326Z,15.68
2019-05-02T01:30:23.109Z,17.50
2019-05-02T01:31:33.808Z,16.60
2019-05-02T01:32:56.567Z,17.07
2019-05-02T01:34:18.353Z,18.48
2019-05-02T01:35:38.919Z,16.25
2019-05-02T01:36:51.410Z,16.17
2019-05-02T01:38:14.760Z,19.23
2019-05-02T01:39:18.980Z,16.80
2019-05-02T01:40:23.165Z,18.92
2019-05-02T01:41:29.286Z,21.40
2019-05-02T01:42:39.937Z,16.95
2019-05-02T01:43:39.543Z,16.23
2019-05-02T01:44:43.733Z,17.62
2019-05-02T01:45:48.332Z,16.20
2019-05-02T01:46:54.072Z,17.73
2019-05-02T01:47:58.562Z,17.32
2019-05-02T01:49:02.923Z,17.55
2019-05-02T01:50:07.297Z,19.17
2019-05-02T01:51:12.151Z,18.07
2019-05-02T01:52:18.865Z,16.42
2019-05-02T01:53:22.781Z,17.17
2019-05-02T01:54:27.037Z,15.95
2019-05-02T01:55:31.385Z,16.07
2019-05-02T01:56:35.593Z,19.20
2019-05-02T01:57:39.873Z,19.37
2019-05-02T01:58:45.728Z,17.65
2019-05-02T01:59:49.983Z,18.17
2019-05-02T02:00:54.296Z,16.67
2019-05-02T02:01:59.190Z,15.72
2019-05-02T02:03:04.223Z,17.23
2019-05-02T02:04:09.564Z,18.35
2019-05-02T02:05:13.776Z,17.52
2019-05-02T02:06:18.051Z,16.77
2019-05-02T02:07:22.338Z,19.57
2019-05-02T02:08:27.358Z,15.58
2019-05-02T02:09:32.711Z,17.00
2019-05-02T02:10:37.007Z,16.50
2019-05-02T02:11:41.349Z,20.45
2019-05-02T02:13:02.793Z,18.65
2019-05-02T02:13:51.657Z,17.02
2019-05-02T02:14:56.229Z,18.07
2019-05-02T02:16:04.425Z,16.52
2019-05-02T02:17:10.097Z,17.35
2019-05-02T02:18:14.100Z,18.75
2019-05-02T02:19:26.843Z,23.62
2019-05-02T02:20:35.561Z,16.07
2019-05-02T02:22:02.866Z,16.52
2019-05-02T02:23:14.173Z,19.70
2019-05-02T02:24:28.919Z,16.05
2019-05-02T02:25:46.175Z,16.55
2019-05-02T02:26:50.557Z,16.93
2019-05-02T02:27:54.913Z,16.05
2019-05-02T02:29:05.986Z,16.62
2019-05-02T02:30:07.334Z,17.05
2019-05-02T02:31:11.739Z,17.30
2019-05-02T02:32:20.364Z,15.72
2019-05-02T02:33:22.000Z,15.30
2019-05-02T02:34:29.426Z,16.80
2019-05-02T02:35:32.490Z,21.60
2019-05-02T02:36:36.869Z,15.78
2019-05-02T02:37:52.132Z,13.75
2019-05-02T02:38:47.076Z,15.18
2019-05-02T02:39:54.016Z,17.73
2019-05-02T02:40:57.521Z,15.32
2019-05-02T02:42:01.847Z,16.42
2019-05-02T02:43:29.872Z,15.23
2019-05-02T02:44:22.288Z,15.68
2019-05-02T02:45:42.227Z,15.93
2019-05-02T02:46:46.841Z,15.15
2019-05-02T02:47:52.950Z,17.02
2019-05-02T02:48:57.042Z,15.45
2019-05-02T02:50:02.339Z,16.05
2019-05-02T02:51:07.185Z,14.50
2019-05-02T02:52:11.588Z,16.80
2019-05-02T02:53:24.222Z,16.57
2019-05-02T02:54:24.689Z,15.83
2019-05-02T02:55:29.036Z,16.55
2019-05-02T02:56:34.448Z,18.35
2019-05-02T02:57:39.391Z,17.07
2019-05-02T02:58:46.320Z,22.82
2019-05-02T02:59:49.626Z,16.20
2019-05-02T03:00:53.932Z,17.98
2019-05-02T03:02:09.319Z,18.98
2019-05-02T03:03:04.171Z,19.05
2019-05-02T03:04:11.792Z,17.48
2019-05-02T03:05:18.826Z,19.65
2019-05-02T03:06:20.725Z,19.52
2019-05-02T03:07:28.469Z,18.07
2019-05-02T03:08:30.980Z,19.77
2019-05-02T03:09:35.251Z,19.90
2019-05-02T03:10:44.779Z,17.82
2019-05-02T03:12:07.484Z,19.25
2019-05-02T03:13:29.545Z,18.45
2019-05-02T03:14:41.004Z,21.17
2019-05-02T03:15:47.341Z,18.95
2019-05-02T03:16:51.641Z,19.73
2019-05-02T03:17:59.916Z,19.42
2019-05-02T03:19:01.818Z,21.85
2019-05-02T03:20:06.066Z,21.30
2019-05-02T03:21:13.339Z,17.45
2019-05-02T03:22:16.387Z,20.23
2019-05-02T03:23:22.329Z,18.00
2019-05-02T03:24:27.479Z,18.15
2019-05-02T03:25:50.068Z,21.87
2019-05-02T03:26:37.754Z,21.60
2019-05-02T03:27:42.126Z,19.10
2019-05-02T03:28:57.683Z,20.45
2019-05-02T03:29:52.542Z,18.20
2019-05-02T03:30:57.101Z,17.32
2019-05-02T03:32:14.635Z,18.50
2019-05-02T03:33:11.547Z,21.07
2019-05-02T03:34:13.784Z,18.20
2019-05-02T03:35:19.373Z,17.50
2019-05-02T03:36:34.346Z,16.62
2019-05-02T03:37:29.994Z,19.10
2019-05-02T03:38:35.258Z,16.77
2019-05-02T03:39:39.898Z,18.37
2019-05-02T03:40:44.435Z,15.80
2019-05-02T03:41:55.393Z,14.85
2019-05-02T03:42:56.026Z,17.20
2019-05-02T03:44:10.454Z,16.30
2019-05-02T03:45:06.703Z,16.07
2019-05-02T03:46:13.716Z,17.87
2019-05-02T03:47:17.402Z,14.85
2019-05-02T03:48:25.929Z,14.75
2019-05-02T03:49:27.950Z,14.95
2019-05-02T03:50:35.091Z,16.70
2019-05-02T03:51:38.107Z,15.88
2019-05-02T03:52:46.186Z,18.15
2019-05-02T03:53:48.292Z,18.37
2019-05-02T03:54:52.925Z,17.95
2019-05-02T03:55:58.363Z,19.45
2019-05-02T03:57:02.645Z,19.48
2019-05-02T03:58:14.264Z,15.55
2019-05-02T03:59:13.600Z,16.95
2019-05-02T04:00:20.838Z,16.45
2019-05-02T04:01:24.110Z,18.73
2019-05-02T04:02:28.696Z,16.57
2019-05-02T04:03:33.888Z,16.93
2019-05-02T04:04:40.237Z,17.25
2019-05-02T04:05:44.758Z,16.70
2019-05-02T04:06:54.854Z,16.23
2019-05-02T04:07:55.073Z,16.55
2019-05-02T04:09:01.776Z,19.20
2019-05-02T04:10:13.566Z,17.20
2019-05-02T04:11:23.604Z,16.37
2019-05-02T04:12:32.179Z,16.67
2019-05-02T04:13:36.332Z,18.32
2019-05-02T04:14:41.197Z,17.92
2019-05-02T04:15:45.912Z,17.50
2019-05-02T04:16:55.133Z,16.55
2019-05-02T04:17:56.403Z,18.73
2019-05-02T04:19:07.307Z,18.67
2019-05-02T04:20:12.788Z,17.02
2019-05-02T04:21:24.383Z,16.12
2019-05-02T04:22:24.072Z,17.60
2019-05-02T04:23:29.949Z,15.85
2019-05-02T04:24:34.525Z,15.98
2019-05-02T04:25:39.047Z,16.37
2019-05-02T04:26:53.895Z,16.15
2019-05-02T04:27:51.088Z,18.73
2019-05-02T04:28:55.759Z,16.57
2019-05-02T04:30:09.777Z,16.42
2019-05-02T04:31:05.814Z,18.75
2019-05-02T04:32:14.147Z,18.67
2019-05-02T04:33:16.116Z,17.60
2019-05-02T04:34:20.355Z,16.05
2019-05-02T04:35:28.761Z,17.80
2019-05-02T04:36:30.940Z,16.97
2019-05-02T04:37:40.927Z,16.27
2019-05-02T04:38:47.123Z,18.15
2019-05-02T04:39:49.082Z,16.15
2019-05-02T04:40:53.365Z,16.95
2019-05-02T04:41:58.703Z,15.60
2019-05-02T04:43:10.430Z,17.82
2019-05-02T04:44:09.393Z,23.00
2019-05-02T04:45:24.871Z,18.12
2019-05-02T04:46:27.112Z,17.50
2019-05-02T04:47:28.844Z,18.30
2019-05-02T04:48:34.739Z,16.40
2019-05-02T04:49:39.224Z,16.57
2019-05-02T04:50:43.390Z,17.60
2019-05-02T04:51:59.830Z,16.77
2019-05-02T04:52:54.232Z,18.73
2019-05-02T04:53:58.986Z,15.72
2019-05-02T04:55:14.641Z,18.00
2019-05-02T04:56:10.703Z,16.23
2019-05-02T04:57:15.325Z,17.52
2019-05-02T04:58:27.667Z,18.77
2019-05-02T04:59:28.285Z,17.90
2019-05-02T05:00:31.474Z,19.07
2019-05-02T05:01:43.432Z,23.30
2019-05-02T05:02:41.643Z,19.60
2019-05-02T05:03:51.246Z,18.52
2019-05-02T05:04:51.895Z,18.85
2019-05-02T05:06:01.558Z,17.95
2019-05-02T05:07:02.309Z,18.42
2019-05-02T05:08:07.704Z,18.45
2019-05-02T05:09:14.803Z,22.00
2019-05-02T05:10:18.604Z,18.85
2019-05-02T05:11:24.937Z,18.62
2019-05-02T05:12:32.605Z,19.60
2019-05-02T05:13:36.906Z,16.40
2019-05-02T05:14:43.316Z,17.70
2019-05-02T05:15:51.313Z,18.30
2019-05-02T05:16:55.580Z,18.55
2019-05-02T05:17:58.959Z,17.05
2019-05-02T05:19:03.253Z,17.55
2019-05-02T05:20:13.727Z,17.73
2019-05-02T05:21:13.533Z,17.60
2019-05-02T05:22:18.524Z,17.73
2019-05-02T05:23:33.907Z,17.85
2019-05-02T05:24:47.683Z,16.50
2019-05-02T05:26:03.511Z,18.82
2019-05-02T05:27:02.579Z,16.87
2019-05-02T05:28:08.854Z,17.23
2019-05-02T05:29:13.950Z,18.90
2019-05-02T05:30:19.021Z,17.75
2019-05-02T05:31:24.485Z,21.00
2019-05-02T05:32:29.254Z,16.42
2019-05-02T05:33:33.468Z,18.50
2019-05-02T05:34:38.062Z,17.37
2019-05-02T05:35:43.217Z,17.82
2019-05-02T05:36:48.308Z,16.77
2019-05-02T05:37:53.377Z,17.90
2019-05-02T05:38:58.404Z,16.67
2019-05-02T05:40:02.845Z,17.82
2019-05-02T05:41:08.900Z,19.80
2019-05-02T05:42:12.965Z,18.57
2019-05-02T05:43:20.329Z,23.70
2019-05-02T05:44:27.908Z,21.70
2019-05-02T05:45:29.690Z,19.55
2019-05-02T05:46:40.987Z,19.40
2019-05-02T05:47:40.139Z,21.48
2019-05-02T05:48:44.393Z,20.27
2019-05-02T05:49:52.280Z,20.75
2019-05-02T05:50:55.135Z,20.23
2019-05-02T05:52:02.616Z,21.55
2019-05-02T05:53:05.429Z,17.80
2019-05-02T05:54:09.697Z,23.10
2019-05-02T05:55:20.579Z,20.37
2019-05-02T05:56:20.085Z,21.45
2019-05-02T05:57:24.298Z,21.80
2019-05-02T05:58:28.513Z,20.77
2019-05-02T05:59:32.809Z,21.48
2019-05-02T06:00:38.067Z,23.40
2019-05-02T06:01:44.046Z,24.23
2019-05-02T06:02:53.878Z,23.02
2019-05-02T06:03:54.317Z,22.42
2019-05-02T06:05:02.508Z,21.10
2019-05-02T06:06:05.275Z,20.95
2019-05-02T06:07:09.407Z,22.80
2019-05-02T06:08:13.911Z,22.20
2019-05-02T06:09:19.491Z,21.62
2019-05-02T06:10:24.023Z,20.68
2019-05-02T06:11:28.283Z,22.87
2019-05-02T06:12:35.455Z,22.98
2019-05-02T06:13:43.007Z,22.22
2019-05-02T06:14:46.433Z,23.22
2019-05-02T06:16:01.653Z,21.68
2019-05-02T06:16:56.537Z,21.75
2019-05-02T06:18:04.859Z,25.08
2019-05-02T06:19:07.095Z,24.57
2019-05-02T06:20:11.885Z,27.37
2019-05-02T06:21:17.185Z,29.40
2019-05-02T06:22:24.346Z,29.63
2019-05-02T06:23:31.028Z,32.20
2019-05-02T06:24:34.066Z,41.92
2019-05-02T06:25:42.154Z,53.42
2019-05-02T06:26:49.133Z,66.67
2019-05-02T06:27:50.698Z,68.10
2019-05-02T06:28:54.929Z,86.72
2019-05-02T06:29:59.095Z,57.95
2019-05-02T06:31:07.235Z,69.37
2019-05-02T06:32:09.442Z,63.48
2019-05-02T06:33:13.720Z,60.03
2019-05-02T06:34:18.145Z,37.40
2019-05-02T06:35:22.491Z,33.85
2019-05-02T06:36:26.878Z,39.50
2019-05-02T06:37:31.158Z,34.40
2019-05-02T06:38:35.441Z,28.77
2019-05-02T06:39:39.765Z,26.55
2019-05-02T06:40:44.607Z,26.10
2019-05-02T06:41:52.124Z,28.98
2019-05-02T06:42:55.999Z,28.40
2019-05-02T06:44:00.271Z,34.25
2019-05-02T06:45:05.735Z,35.68
2019-05-02T06:46:16.356Z,42.23
2019-05-02T06:47:16.189Z,49.98
2019-05-02T06:48:20.588Z,63.85
2019-05-02T06:49:26.049Z,94.47
2019-05-02T06:50:33.250Z,93.55
2019-05-02T06:51:36.510Z,77.62
2019-05-02T06:52:40.915Z,62.00
2019-05-02T06:53:47.112Z,67.42
2019-05-02T06:54:54.134Z,56.37
2019-05-02T06:55:57.683Z,54.05
2019-05-02T06:57:01.809Z,47.03
2019-05-02T06:58:08.127Z,35.30
2019-05-02T06:59:13.150Z,28.98
2019-05-02T07:00:18.317Z,27.73
2019-05-02T07:01:22.983Z,30.40
2019-05-02T07:02:28.250Z,34.67
2019-05-02T07:03:33.783Z,33.18
2019-05-02T07:04:38.177Z,36.05
2019-05-02T07:05:42.619Z,30.68
2019-05-02T07:06:58.201Z,26.62
2019-05-02T07:07:53.117Z,42.93
2019-05-02T07:08:59.607Z,44.18
2019-05-02T07:10:03.342Z,29.65
2019-05-02T07:11:08.259Z,31.40
2019-05-02T07:12:14.729Z,30.52
2019-05-02T07:13:18.870Z,30.92
2019-05-02T07:14:24.132Z,28.85
2019-05-02T07:15:48.609Z,25.75
2019-05-02T07:17:14.849Z,24.50
2019-05-02T07:18:19.709Z,26.55
2019-05-02T07:19:42.983Z,25.65
2019-05-02T07:20:47.228Z,23.80
2019-05-02T07:21:53.048Z,24.87
2019-05-02T07:22:57.705Z,24.23
2019-05-02T07:24:02.123Z,26.07
2019-05-02T07:25:08.930Z,23.77
2019-05-02T07:26:15.555Z,28.60
2019-05-02T07:27:19.473Z,26.82
2019-05-02T07:28:24.281Z,25.95
2019-05-02T07:29:28.640Z,22.62
2019-05-02T07:30:34.979Z,23.62
2019-05-02T07:31:42.912Z,23.50
2019-05-02T07:32:45.064Z,22.55
2019-05-02T07:33:49.446Z,26.20
2019-05-02T07:34:53.619Z,22.70
2019-05-02T07:36:00.183Z,24.23
2019-05-02T07:37:08.305Z,22.65
2019-05-02T07:38:09.704Z,22.45
2019-05-02T07:39:14.077Z,24.02
2019-05-02T07:40:18.898Z,23.90
2019-05-02T07:41:24.112Z,27.85
2019-05-02T07:42:29.198Z,22.98
2019-05-02T07:43:33.469Z,22.62
2019-05-02T07:44:37.651Z,24.12
2019-05-02T07:45:45.281Z,22.22
2019-05-02T07:46:51.947Z,23.57
2019-05-02T07:47:53.931Z,22.20
2019-05-02T07:48:58.158Z,25.48
2019-05-02T07:50:05.262Z,23.18
2019-05-02T07:51:08.883Z,22.80
2019-05-02T07:52:13.089Z,22.40
2019-05-02T07:53:17.412Z,20.70
2019-05-02T07:54:24.823Z,24.27
2019-05-02T07:55:30.527Z,23.32
2019-05-02T07:56:33.870Z,26.70
2019-05-02T07:57:38.205Z,23.55
2019-05-02T07:58:46.941Z,22.80
2019-05-02T07:59:49.860Z,24.57
2019-05-02T08:00:54.305Z,23.15
2019-05-02T08:01:58.545Z,24.02
2019-05-02T08:03:05.078Z,21.65
2019-05-02T08:04:11.300Z,38.05
2019-05-02T08:05:15.612Z,23.60
2019-05-02T08:06:34.046Z,20.90
2019-05-02T08:07:34.089Z,20.77
2019-05-02T08:08:36.043Z,21.07
2019-05-02T08:09:43.955Z,20.15
2019-05-02T08:10:45.274Z,23.95
2019-05-02T08:11:49.927Z,24.27
2019-05-02T08:12:54.254Z,21.80
2019-05-02T08:14:00.466Z,21.82
2019-05-02T08:15:07.481Z,24.65
2019-05-02T08:16:12.126Z,23.90
2019-05-02T08:17:19.037Z,20.75
2019-05-02T08:18:25.104Z,21.23
2019-05-02T08:19:28.487Z,23.18
2019-05-02T08:20:32.706Z,27.55
2019-05-02T08:21:36.909Z,20.52
2019-05-02T08:22:44.082Z,21.45
2019-05-02T08:23:47.176Z,20.80
2019-05-02T08:24:51.505Z,19.65
2019-05-02T08:25:55.875Z,21.27
2019-05-02T08:27:36.546Z,20.02
2019-05-02T08:28:51.888Z,23.02
2019-05-02T08:29:54.879Z,21.15
2019-05-02T08:30:59.235Z,22.35
2019-05-02T08:32:03.447Z,22.00
2019-05-02T08:33:07.633Z,22.05
2019-05-02T08:34:14.997Z,21.17
2019-05-02T08:35:17.805Z,22.98
2019-05-02T08:36:22.315Z,20.08
2019-05-02T08:37:26.688Z,20.95
2019-05-02T08:38:30.931Z,19.05
2019-05-02T08:39:35.605Z,21.12
2019-05-02T08:40:42.325Z,19.45
2019-05-02T08:41:46.039Z,22.85
2019-05-02T08:42:50.369Z,23.07
2019-05-02T08:43:54.542Z,22.90
2019-05-02T08:45:01.148Z,18.02
2019-05-02T08:46:09.517Z,22.55
2019-05-02T08:47:18.639Z,19.60
2019-05-02T08:48:17.336Z,19.42
2019-05-02T08:49:21.565Z,23.47
2019-05-02T08:50:27.210Z,19.73
2019-05-02T08:51:32.191Z,20.80
2019-05-02T08:52:36.858Z,22.52
2019-05-02T08:53:42.421Z,20.95
2019-05-02T08:54:46.654Z,22.62
2019-05-02T08:55:50.873Z,18.82
2019-05-02T08:56:58.798Z,22.17
2019-05-02T08:58:01.189Z,19.20
2019-05-02T08:59:05.531Z,21.30
2019-05-02T09:00:12.716Z,23.00
2019-05-02T09:01:17.004Z,22.07
2019-05-02T09:02:25.971Z,23.60
2019-05-02T09:03:27.365Z,22.42
2019-05-02T09:04:31.582Z,19.52
2019-05-02T09:05:36.396Z,21.48
2019-05-02T09:06:42.007Z,20.10
2019-05-02T09:07:46.311Z,26.60
2019-05-02T09:08:51.369Z,21.70
2019-05-02T09:10:00.210Z,18.05
2019-05-02T09:11:02.464Z,18.55
2019-05-02T09:12:12.244Z,20.25
2019-05-02T09:13:18.054Z,19.48
2019-05-02T09:14:19.057Z,18.90
2019-05-02T09:15:23.285Z,19.05
2019-05-02T09:16:30.283Z,16.27
2019-05-02T09:17:38.425Z,16.73
2019-05-02T09:18:46.549Z,20.95
2019-05-02T09:19:59.166Z,21.27
2019-05-02T09:20:56.201Z,20.85
2019-05-02T09:21:57.670Z,17.48
2019-05-02T09:23:01.980Z,17.73
2019-05-02T09:24:08.498Z,20.27
2019-05-02T09:25:12.663Z,19.25
2019-05-02T09:26:17.054Z,19.50
2019-05-02T09:27:22.488Z,21.20
2019-05-02T09:28:26.915Z,21.62
2019-05-02T09:29:32.728Z,17.00
2019-05-02T09:30:37.207Z,20.55
2019-05-02T09:31:45.766Z,21.73
2019-05-02T09:32:47.467Z,20.62
2019-05-02T09:33:52.087Z,18.37
2019-05-02T09:35:02.380Z,15.03
2019-05-02T09:36:04.399Z,14.05
2019-05-02T09:37:08.589Z,17.25
2019-05-02T09:38:16.117Z,15.60
2019-05-02T09:39:18.869Z,17.42
2019-05-02T09:40:23.129Z,13.25
2019-05-02T09:41:34.408Z,13.30
2019-05-02T09:42:34.076Z,16.05
2019-05-02T09:43:39.245Z,12.63
2019-05-02T09:44:48.075Z,18.52
2019-05-02T09:45:51.858Z,14.45
2019-05-02T09:46:57.179Z,15.72
2019-05-02T09:48:07.141Z,15.63
2019-05-02T09:49:11.942Z,13.30
2019-05-02T09:50:15.686Z,14.43
2019-05-02T09:51:21.601Z,10.50
2019-05-02T09:52:26.295Z,17.77
2019-05-02T09:53:32.388Z,14.68
2019-05-02T09:54:41.432Z,12.28
2019-05-02T09:55:50.228Z,15.72
2019-05-02T09:56:48.798Z,13.50
2019-05-02T09:57:53.051Z,10.72
2019-05-02T09:59:04.740Z,12.00
2019-05-02T10:00:03.332Z,10.58
2019-05-02T10:01:26.835Z,10.20
2019-05-02T10:02:32.542Z,7.53
2019-05-02T10:03:36.842Z,8.50
2019-05-02T10:04:43.833Z,8.55
2019-05-02T10:05:47.128Z,8.38
2019-05-02T10:06:52.471Z,8.18
2019-05-02T10:07:57.520Z,9.85
2019-05-02T10:09:04.859Z,9.20
2019-05-02T10:10:09.833Z,7.92
2019-05-02T10:11:17.123Z,10.80
2019-05-02T10:12:20.020Z,7.62
2019-05-02T10:13:24.251Z,11.65
2019-05-02T10:14:28.757Z,15.58
2019-05-02T10:15:33.003Z,7.95
2019-05-02T10:16:37.335Z,8.95
2019-05-02T10:17:44.722Z,10.85
2019-05-02T10:18:47.826Z,13.20
2019-05-02T10:19:57.040Z,10.70
2019-05-02T10:20:58.287Z,9.53
2019-05-02T10:22:02.669Z,9.53
2019-05-02T10:23:11.371Z,9.08
2019-05-02T10:24:13.080Z,9.90
2019-05-02T10:25:17.353Z,9.38
2019-05-02T10:26:24.594Z,8.43
2019-05-02T10:27:27.691Z,9.25
2019-05-02T10:28:32.107Z,9.60
2019-05-02T10:29:36.373Z,9.15
2019-05-02T10:30:42.656Z,11.55
2019-05-02T10:31:46.742Z,10.40
2019-05-02T10:32:52.826Z,8.58
2019-05-02T10:33:57.423Z,6.20
2019-05-02T10:35:02.154Z,10.38
2019-05-02T10:36:06.601Z,8.48
2019-05-02T10:37:12.322Z,9.08
2019-05-02T10:38:19.460Z,7.62
2019-05-02T10:39:23.535Z,10.82
2019-05-02T10:40:27.922Z,9.88
2019-05-02T10:41:39.441Z,11.53
2019-05-02T10:42:38.241Z,8.08
2019-05-02T10:43:42.478Z,8.53
2019-05-02T10:44:46.737Z,8.28
2019-05-02T10:45:56.635Z,6.30
2019-05-02T10:47:02.868Z,7.65
2019-05-02T10:48:07.123Z,9.28
2019-05-02T10:49:17.633Z,6.17
2019-05-02T10:50:32.896Z,8.30
2019-05-02T10:51:41.977Z,7.08
2019-05-02T10:52:43.329Z,4.75
2019-05-02T10:53:52.758Z,5.62
2019-05-02T10:54:53.665Z,6.28
2019-05-02T10:55:58.235Z,5.62
2019-05-02T10:57:02.431Z,7.83
2019-05-02T10:58:06.845Z,7.42
2019-05-02T10:59:11.763Z,6.15
2019-05-02T11:00:17.984Z,6.85
2019-05-02T11:01:22.637Z,40.12
2019-05-02T11:02:44.574Z,47.80
2019-05-02T11:03:51.688Z,21.23
2019-05-02T11:04:59.407Z,27.35
2019-05-02T11:06:07.460Z,33.65
2019-05-02T11:07:11.588Z,28.67
2019-05-02T11:08:15.669Z,21.55
2019-05-02T11:09:24.581Z,17.98
2019-05-02T11:10:26.106Z,8.68
2019-05-02T11:11:32.329Z,9.18
2019-05-02T11:12:52.947Z,10.48
2019-05-02T11:14:12.002Z,6.37
2019-05-02T11:15:35.991Z,7.25
2019-05-02T11:16:56.822Z,7.03
2019-05-02T11:18:02.324Z,8.83
2019-05-02T11:19:10.274Z,6.17
2019-05-02T11:20:14.871Z,8.03
2019-05-02T11:21:19.245Z,7.75
2019-05-02T11:22:23.459Z,6.03
2019-05-02T11:23:27.818Z,7.42
2019-05-02T11:24:32.191Z,9.78
2019-05-02T11:25:36.389Z,7.25
2019-05-02T11:26:42.837Z,6.37
2019-05-02T11:27:46.625Z,5.83
2019-05-02T11:28:52.132Z,7.12
2019-05-02T11:29:56.537Z,6.03
2019-05-02T11:31:02.520Z,5.62
2019-05-02T11:32:07.368Z,5.12
2019-05-02T11:33:13.371Z,8.23
2019-05-02T11:34:17.868Z,6.70
2019-05-02T11:35:22.427Z,4.85
2019-05-02T11:36:27.525Z,9.80
2019-05-02T11:37:32.838Z,6.75
2019-05-02T11:38:44.427Z,12.75
2019-05-02T11:39:49.851Z,6.72
2019-05-02T11:40:49.107Z,7.75
2019-05-02T11:41:53.419Z,7.12
2019-05-02T11:43:02.850Z,9.18
2019-05-02T11:44:03.846Z,6.60
2019-05-02T11:45:08.847Z,7.05
2019-05-02T11:46:13.260Z,6.45
2019-05-02T11:47:24.916Z,11.00
2019-05-02T11:48:23.484Z,10.35
2019-05-02T11:49:27.821Z,7.30
2019-05-02T11:50:35.460Z,9.83
2019-05-02T11:51:37.985Z,27.82
2019-05-02T11:52:42.555Z,20.92
2019-05-02T11:53:46.911Z,21.02
2019-05-02T11:54:52.096Z,9.25
2019-05-02T11:55:58.327Z,8.35
2019-05-02T11:57:02.628Z,10.93
2019-05-02T11:58:08.259Z,6.70
2019-05-02T11:59:15.010Z,11.60
2019-05-02T12:00:19.408Z,11.38
2019-05-02T12:01:35.622Z,11.43
2019-05-02T12:02:58.105Z,19.25
2019-05-02T12:04:02.818Z,6.80
2019-05-02T12:05:08.380Z,9.45
2019-05-02T12:06:17.131Z,8.48
2019-05-02T12:07:18.641Z,27.82
2019-05-02T12:08:22.825Z,23.55
2019-05-02T12:09:27.483Z,29.20
2019-05-02T12:10:32.991Z,13.28
2019-05-02T12:11:37.892Z,40.78
2019-05-02T12:12:43.002Z,21.15
2019-05-02T12:13:52.809Z,12.85
2019-05-02T12:14:53.665Z,11.68
2019-05-02T12:15:58.000Z,14.65
2019-05-02T12:17:02.687Z,7.33
2019-05-02T12:18:06.979Z,8.78
2019-05-02T12:19:14.739Z,9.35
2019-05-02T12:20:17.244Z,14.90
2019-05-02T12:21:22.918Z,8.88
2019-05-02T12:22:27.413Z,8.70
2019-05-02T12:23:32.085Z,6.25
2019-05-02T12:24:40.902Z,8.45
2019-05-02T12:25:42.595Z,5.37
2019-05-02T12:26:46.747Z,8.45
2019-05-02T12:27:52.737Z,7.45
2019-05-02T12:28:57.103Z,5.80
2019-05-02T12:30:03.325Z,10.48
2019-05-02T12:31:13.210Z,7.67
2019-05-02T12:32:17.013Z,6.42
2019-05-02T12:33:22.941Z,5.85
2019-05-02T12:34:27.218Z,7.90
2019-05-02T12:35:32.264Z,10.40
2019-05-02T12:36:36.611Z,7.03
2019-05-02T12:37:42.439Z,11.15
2019-05-02T12:38:46.862Z,11.50
2019-05-02T12:39:51.709Z,8.15
2019-05-02T12:40:57.916Z,6.97
2019-05-02T12:42:03.362Z,8.43
2019-05-02T12:43:07.991Z,8.75
2019-05-02T12:44:12.341Z,8.63
2019-05-02T12:45:17.277Z,8.58
2019-05-02T12:46:22.278Z,8.60
2019-05-02T12:47:26.783Z,11.48
2019-05-02T12:48:32.804Z,8.40
2019-05-02T12:49:37.141Z,8.75
2019-05-02T12:50:41.927Z,10.40
2019-05-02T12:51:46.494Z,40.35
2019-05-02T12:52:52.158Z,36.70
2019-05-02T12:53:56.729Z,17.75
2019-05-02T12:55:02.226Z,17.12
2019-05-02T12:56:07.018Z,16.87
2019-05-02T12:57:12.501Z,18.87
2019-05-02T12:58:17.156Z,15.90
2019-05-02T12:59:22.488Z,15.45
2019-05-02T13:00:27.049Z,6.83
2019-05-02T13:01:32.970Z,9.88
2019-05-02T13:02:52.578Z,8.03
2019-05-02T13:04:12.458Z,11.73
2019-05-02T13:05:16.883Z,7.92
2019-05-02T13:06:22.009Z,6.22
2019-05-02T13:07:26.515Z,8.28
2019-05-02T13:08:32.357Z,6.03
2019-05-02T13:09:36.931Z,39.55
2019-05-02T13:11:06.691Z,13.13
2019-05-02T13:12:14.051Z,10.75
2019-05-02T13:13:18.435Z,8.60
2019-05-02T13:14:25.592Z,11.95
2019-05-02T13:15:30.129Z,82.00
2019-05-02T13:16:34.561Z,43.45
2019-05-02T13:17:43.918Z,15.03
2019-05-02T13:18:45.091Z,37.28
2019-05-02T13:19:56.943Z,28.83
2019-05-02T13:20:55.910Z,54.90
2019-05-02T13:22:21.947Z,27.00
2019-05-02T13:23:42.581Z,50.08
2019-05-02T13:24:54.919Z,19.48
2019-05-02T13:25:58.755Z,22.45
2019-05-02T13:27:04.341Z,14.13
2019-05-02T13:28:08.833Z,25.77
2019-05-02T13:29:13.142Z,21.27
2019-05-02T13:30:42.681Z,26.20
2019-05-02T13:32:01.768Z,12.88
2019-05-02T13:33:07.194Z,8.20
2019-05-02T13:34:16.700Z,9.20
2019-05-02T13:35:49.190Z,8.65
2019-05-02T13:36:53.562Z,35.45
2019-05-02T13:38:02.466Z,24.10
2019-05-02T13:39:12.373Z,36.42
2019-05-02T13:40:35.956Z,20.15
2019-05-02T13:42:01.720Z,9.78
2019-05-02T13:43:06.297Z,7.65
2019-05-02T13:44:12.862Z,11.22
2019-05-02T13:45:35.413Z,7.22
2019-05-02T13:46:41.848Z,10.78
2019-05-02T13:47:45.773Z,9.60
2019-05-02T13:48:55.990Z,13.22
2019-05-02T13:50:01.642Z,8.08
2019-05-02T13:51:06.368Z,6.20
2019-05-02T13:52:11.789Z,6.15
2019-05-02T13:53:16.313Z,8.65
2019-05-02T13:54:22.127Z,10.10
2019-05-02T13:55:31.752Z,11.60
2019-05-02T13:56:55.337Z,6.58
2019-05-02T13:57:59.481Z,7.85
2019-05-02T13:59:03.886Z,7.12
2019-05-02T14:00:08.581Z,8.00
2019-05-02T14:01:13.038Z,8.33
2019-05-02T14:02:38.742Z,8.15
2019-05-02T14:03:42.914Z,10.03
2019-05-02T14:04:47.199Z,7.65
2019-05-02T14:05:53.806Z,7.97
2019-05-02T14:06:57.659Z,16.52
2019-05-02T14:08:37.135Z,13.18
2019-05-02T14:09:57.992Z,12.75
2019-05-02T14:11:17.191Z,10.48
2019-05-02T14:12:42.137Z,5.97
2019-05-02T14:13:46.629Z,7.28
2019-05-02T14:14:51.950Z,12.35
2019-05-02T14:15:56.723Z,9.10
2019-05-02T14:17:02.870Z,7.92
2019-05-02T14:18:06.833Z,19.90
2019-05-02T14:19:12.627Z,28.15
2019-05-02T14:20:22.158Z,9.40